Time;durP1;ratioP1;P1;durP2;ratioP2;P2;SDS_P1;SDS_P2;PMS_P1;PMS_P2;Temp;Humidity;BMP_temperature;BMP_pressure;BME280_temperature;BME280_humidity;BME280_pressure;Samples;Min_cycle;Max_cycle;Signal;HPM_P1;HPM_P2
2022/03/09 00:01:21;;;;;;;67.68;30.42;;;;;;;2.34;100.00;100446.78;4884698;29;20448;-85
2022/03/09 00:04:06;;;;;;;60.25;28.83;;;;;;;2.46;100.00;100469.38;4884933;29;20041;-82
2022/03/09 00:06:50;;;;;;;60.05;27.83;;;;;;;2.43;100.00;100460.72;4884022;29;20059;-82
2022/03/09 00:09:35;;;;;;;59.63;27.65;;;;;;;2.48;100.00;100470.31;4871345;29;20130;-82
2022/03/09 00:12:20;;;;;;;56.88;28.15;;;;;;;2.51;100.00;100469.50;4884778;29;20045;-82
2022/03/09 00:15:05;;;;;;;55.15;24.73;;;;;;;2.53;100.00;100455.72;4884758;29;20440;-82
2022/03/09 00:26:39;;;;;;;35.83;16.42;;;;;;;2.53;100.00;100455.72;4895757;29;20120;-81
2022/03/09 00:29:26;;;;;;;32.97;15.18;;;;;;;2.54;100.00;100447.13;4903095;29;20375;-83
2022/03/09 00:32:11;;;;;;;32.72;13.93;;;;;;;2.57;100.00;100446.34;4903280;29;20048;-83
2022/03/09 00:34:56;;;;;;;33.10;14.73;;;;;;;2.52;100.00;100427.25;4903129;29;20045;-82
2022/03/09 00:37:41;;;;;;;28.75;13.15;;;;;;;2.54;100.00;100430.75;4903048;29;20041;-82
2022/03/09 00:40:25;;;;;;;28.35;12.95;;;;;;;2.74;100.00;100449.19;4903067;29;20045;-82
2022/03/09 00:43:10;;;;;;;29.20;12.57;;;;;;;2.76;100.00;100448.38;4903189;29;20127;-81
2022/03/09 00:45:56;;;;;;;25.52;12.02;;;;;;;2.81;100.00;100445.88;4903021;29;20108;-83
2022/03/09 00:48:40;;;;;;;28.85;12.73;;;;;;;2.78;100.00;100438.06;4902863;29;20052;-83
2022/03/09 00:51:25;;;;;;;31.27;13.35;;;;;;;2.71;100.00;100418.09;4902868;29;20361;-82
2022/03/09 00:54:09;;;;;;;25.65;13.45;;;;;;;2.79;100.00;100432.91;4903033;29;20056;-82
2022/03/09 00:56:54;;;;;;;25.35;13.38;;;;;;;2.78;100.00;100407.88;4901791;29;20056;-82
2022/03/09 00:59:39;;;;;;;30.65;13.68;;;;;;;2.87;100.00;100419.22;4888837;29;20048;-82
2022/03/09 01:02:24;;;;;;;32.60;14.20;;;;;;;2.85;100.00;100418.31;4902799;29;20052;-82
2022/03/09 01:05:09;;;;;;;33.30;14.57;;;;;;;2.79;100.00;100412.22;4902518;29;20107;-81
2022/03/09 01:07:54;;;;;;;31.20;12.93;;;;;;;2.90;100.00;100414.09;4902611;29;20361;-82
2022/03/09 01:10:38;;;;;;;35.33;15.38;;;;;;;2.90;100.00;100417.56;4902471;29;20040;-82
2022/03/09 01:13:23;;;;;;;34.47;14.98;;;;;;;2.90;100.00;100408.94;4902285;29;20448;-82
2022/03/09 01:16:08;;;;;;;32.75;14.32;;;;;;;2.89;100.00;100417.50;4902049;29;20500;-82
2022/03/09 01:18:52;;;;;;;32.88;14.32;;;;;;;2.87;100.00;100417.50;4902215;29;20053;-82
2022/03/09 01:21:37;;;;;;;27.00;13.55;;;;;;;2.86;100.00;100414.88;4902355;29;20068;-82
2022/03/09 01:24:21;;;;;;;28.70;12.43;;;;;;;2.81;100.00;100410.50;4902148;29;20044;-81
2022/03/09 01:27:06;;;;;;;26.77;11.95;;;;;;;2.78;100.00;100405.28;4902013;29;20060;-83
2022/03/09 01:29:50;;;;;;;27.77;12.20;;;;;;;2.84;100.00;100414.00;4902076;29;20044;-82
2022/03/09 01:32:35;;;;;;;26.35;11.15;;;;;;;2.80;100.00;100408.78;4888437;29;20072;-82
2022/03/09 01:35:20;;;;;;;27.55;12.18;;;;;;;2.69;100.00;100401.69;4902199;29;20049;-83
2022/03/09 01:38:04;;;;;;;26.33;12.50;;;;;;;2.69;100.00;100397.38;4888293;29;20064;-82
2022/03/09 01:40:48;;;;;;;22.33;11.15;;;;;;;2.73;100.00;100403.47;4902081;29;20063;-82
2022/03/09 01:43:34;;;;;;;24.80;10.63;;;;;;;2.64;100.00;100408.50;4902084;29;20103;-82
2022/03/09 01:46:18;;;;;;;22.75;9.90;;;;;;;2.55;100.00;100391.13;4901786;29;20538;-82
2022/03/09 01:49:04;;;;;;;26.00;10.13;;;;;;;2.40;100.00;100386.53;4901826;29;20048;-83
2022/03/09 01:51:51;;;;;;;20.80;10.63;;;;;;;2.36;100.00;100395.09;4901651;29;20040;-83
2022/03/09 01:54:36;;;;;;;22.00;9.90;;;;;;;2.17;100.00;100390.44;4901746;29;20341;-83
2022/03/09 01:57:21;;;;;;;22.02;11.68;;;;;;;2.05;100.00;100378.19;4901545;29;20104;-82
2022/03/09 02:00:07;;;;;;;29.05;11.82;;;;;;;1.97;100.00;100371.97;4901529;29;20053;-83
2022/03/09 02:02:51;;;;;;;26.73;12.82;;;;;;;1.89;100.00;100382.19;4901440;29;20053;-84
2022/03/09 02:05:36;;;;;;;27.48;13.13;;;;;;;1.82;100.00;100376.03;4901511;29;20045;-83
2022/03/09 02:11:26;;;;;;;29.20;13.90;;;;;;;1.64;100.00;100363.63;4901395;29;20756;-84
2022/03/09 02:14:29;;;;;;;28.52;12.55;;;;;;;1.58;100.00;100371.25;4901272;29;20142;-83
2022/03/09 02:17:16;;;;;;;24.77;12.98;;;;;;;1.56;100.00;100366.88;4901345;29;20044;-83
2022/03/09 02:20:03;;;;;;;29.83;13.73;;;;;;;1.34;100.00;100345.81;4884942;29;20060;-83
2022/03/09 02:22:47;;;;;;;31.10;13.45;;;;;;;1.44;100.00;100370.09;4901402;29;20442;-84
2022/03/09 02:25:32;;;;;;;30.50;13.32;;;;;;;1.40;100.00;100364.00;4900980;29;20057;-84
2022/03/09 02:28:16;;;;;;;31.10;13.13;;;;;;;1.29;100.00;100359.44;4886989;29;20053;-83
2022/03/09 02:31:01;;;;;;;31.52;13.32;;;;;;;1.07;100.00;100324.56;4900902;29;20069;-83
2022/03/09 02:33:45;;;;;;;25.40;10.88;;;;;;;1.14;100.00;100339.34;4901053;29;20576;-83
2022/03/09 02:36:30;;;;;;;24.90;12.40;;;;;;;1.09;100.00;100354.72;4901152;29;20084;-83
2022/03/09 02:39:14;;;;;;;27.70;13.13;;;;;;;0.77;100.00;100320.47;4900988;29;20040;-83
2022/03/09 02:41:59;;;;;;;25.50;13.00;;;;;;;0.76;100.00;100344.53;4900885;29;20041;-83
2022/03/09 02:44:44;;;;;;;28.50;13.05;;;;;;;0.77;100.00;100354.00;4901012;29;20063;-83
2022/03/09 02:47:28;;;;;;;23.95;12.60;;;;;;;0.86;100.00;100372.28;4900985;29;20052;-83
2022/03/09 02:50:14;;;;;;;25.92;12.77;;;;;;;0.76;100.00;100372.91;4900563;29;20396;-83
2022/03/09 02:52:59;;;;;;;25.90;11.10;;;;;;;0.86;100.00;100380.00;4900751;29;20044;-83
2022/03/09 02:55:43;;;;;;;27.38;11.57;;;;;;;0.70;100.00;100347.81;4900774;29;20111;-83
2022/03/09 02:58:29;;;;;;;23.10;11.18;;;;;;;0.65;100.00;100333.97;4887265;29;20049;-84
2022/03/09 03:01:14;;;;;;;27.70;13.13;;;;;;;0.64;100.00;100341.66;4900530;29;20124;-83
2022/03/09 03:03:59;;;;;;;22.63;11.40;;;;;;;0.74;100.00;100369.41;4900708;29;20040;-83
2022/03/09 03:06:43;;;;;;;20.15;10.13;;;;;;;0.67;100.00;100340.00;4901095;29;20052;-83
2022/03/09 03:09:28;;;;;;;26.50;11.90;;;;;;;0.82;100.00;100348.97;4901027;29;20056;-82
2022/03/09 03:12:12;;;;;;;23.20;10.77;;;;;;;0.97;100.00;100351.88;4901664;29;20041;-83
2022/03/09 03:14:57;;;;;;;23.63;10.52;;;;;;;1.10;100.00;100371.06;4873935;29;20064;-83
2022/03/09 03:17:41;;;;;;;20.17;10.50;;;;;;;1.08;100.00;100346.97;4900544;29;20048;-84
2022/03/09 03:20:26;;;;;;;20.70;9.43;;;;;;;1.24;100.00;100359.34;4887342;29;20053;-83
2022/03/09 03:23:10;;;;;;;26.20;10.55;;;;;;;1.18;100.00;100356.63;4904515;29;20049;-83
2022/03/09 03:25:56;;;;;;;24.60;11.27;;;;;;;1.33;100.00;100376.72;4904190;29;20420;-84
2022/03/09 03:28:40;;;;;;;24.52;11.98;;;;;;;1.37;100.00;100388.88;4904358;29;20088;-85
2022/03/09 03:31:28;;;;;;;23.52;11.52;;;;;;;1.24;100.00;100363.66;4877462;29;20052;-84
2022/03/09 03:34:12;;;;;;;28.90;12.27;;;;;;;1.42;100.00;100391.53;4904120;29;20045;-84
2022/03/09 03:36:56;;;;;;;26.38;12.77;;;;;;;1.33;100.00;100375.03;4904169;29;20048;-84
2022/03/09 03:39:41;;;;;;;24.50;12.52;;;;;;;1.45;100.00;100394.19;4904071;29;20048;-83
2022/03/09 03:42:25;;;;;;;27.13;13.45;;;;;;;1.42;100.00;100381.22;4904321;29;20044;-84
2022/03/09 03:45:09;;;;;;;28.63;12.90;;;;;;;1.49;100.00;100381.38;4904034;29;20052;-84
2022/03/09 03:47:54;;;;;;;25.35;12.13;;;;;;;1.46;100.00;100370.97;4903964;29;20119;-85
2022/03/09 03:50:38;;;;;;;30.63;14.00;;;;;;;1.51;100.00;100387.44;4903704;29;20444;-85
2022/03/09 03:53:23;;;;;;;27.63;13.82;;;;;;;1.54;100.00;100386.66;4903734;29;20045;-85
2022/03/09 03:56:07;;;;;;;29.65;13.32;;;;;;;1.50;100.00;100377.09;4889821;29;20045;-83
2022/03/09 03:58:54;;;;;;;33.85;14.27;;;;;;;1.46;100.00;100380.44;4903732;29;20053;-84
2022/03/09 04:01:38;;;;;;;26.38;12.98;;;;;;;1.59;100.00;100385.00;4903888;29;20052;-85
2022/03/09 04:04:23;;;;;;;33.58;12.75;;;;;;;1.59;100.00;100390.19;4903588;29;20051;-84
2022/03/09 04:07:07;;;;;;;27.58;14.27;;;;;;;1.35;100.00;100349.25;4903778;29;20049;-85
2022/03/09 04:09:52;;;;;;;29.25;14.18;;;;;;;1.53;100.00;100379.75;4889861;29;20408;-84
2022/03/09 04:12:36;;;;;;;28.90;13.73;;;;;;;1.58;100.00;100375.53;4903414;29;20363;-86
2022/03/09 04:15:21;;;;;;;25.80;13.50;;;;;;;1.65;100.00;100387.72;4903480;29;20044;-84
2022/03/09 04:18:06;;;;;;;27.77;13.25;;;;;;;1.63;100.00;100358.44;4903362;29;20052;-85
2022/03/09 04:20:50;;;;;;;28.08;13.10;;;;;;;1.74;100.00;100382.75;4903392;29;20045;-86
2022/03/09 04:23:34;;;;;;;29.90;14.15;;;;;;;1.79;100.00;100386.31;4903424;29;20489;-85
2022/03/09 04:26:19;;;;;;;198.10;66.57;;;;;;;1.78;100.00;100379.38;4903004;29;20108;-86
2022/03/09 04:29:03;;;;;;;382.65;132.95;;;;;;;1.69;100.00;100370.56;4903271;29;20423;-85
2022/03/09 04:31:47;;;;;;;243.18;95.38;;;;;;;1.64;100.00;100383.41;4889060;29;20045;-86
2022/03/09 04:34:31;;;;;;;102.68;42.85;;;;;;;1.74;100.00;100395.66;4903158;29;20044;-86
2022/03/09 04:37:16;;;;;;;79.13;32.58;;;;;;;1.76;100.00;100387.97;4889023;29;20367;-86
2022/03/09 04:40:02;;;;;;;55.53;24.83;;;;;;;1.59;100.00;100361.78;4903008;29;20044;-85
2022/03/09 04:42:46;;;;;;;58.38;24.13;;;;;;;1.59;100.00;100362.66;4903110;29;20044;-86
2022/03/09 04:45:31;;;;;;;61.47;25.70;;;;;;;1.78;100.00;100394.88;4889221;29;20045;-86
2022/03/09 04:48:15;;;;;;;41.40;18.85;;;;;;;1.71;100.00;100397.31;4889223;29;20367;-86
2022/03/09 04:51:02;;;;;;;29.98;16.63;;;;;;;1.66;100.00;100389.50;4902767;29;20400;-86
2022/03/09 04:53:46;;;;;;;54.78;22.75;;;;;;;1.72;100.00;100397.31;4902793;29;20360;-86
2022/03/09 04:56:31;;;;;;;60.65;26.23;;;;;;;1.63;100.00;100390.28;4902921;29;20059;-86
2022/03/09 04:59:17;;;;;;;74.97;33.10;;;;;;;1.63;100.00;100389.44;4902632;29;20048;-86
2022/03/09 05:02:01;;;;;;;90.43;38.47;;;;;;;1.52;100.00;100381.44;4902703;29;20037;-85
2022/03/09 05:04:46;;;;;;;40.75;19.05;;;;;;;1.49;100.00;100396.00;4902574;29;20045;-85
2022/03/09 05:07:31;;;;;;;41.35;19.05;;;;;;;1.55;100.00;100393.53;4902488;29;20044;-86
2022/03/09 05:10:16;;;;;;;39.97;18.63;;;;;;;1.60;100.00;100402.28;4902426;29;20057;-85
2022/03/09 05:13:00;;;;;;;33.00;14.55;;;;;;;1.54;100.00;100396.97;4901172;29;20037;-84
2022/03/09 05:15:45;;;;;;;31.40;15.23;;;;;;;1.54;100.00;100394.41;4900746;29;20052;-86
2022/03/09 05:18:29;;;;;;;33.70;16.70;;;;;;;1.56;100.00;100387.53;4886595;29;20123;-84
2022/03/09 05:21:15;;;;;;;36.30;16.88;;;;;;;1.60;100.00;100412.59;4900460;29;20056;-85
2022/03/09 05:23:59;;;;;;;35.88;18.45;;;;;;;1.44;100.00;100397.63;4886279;29;20055;-85
2022/03/09 05:26:48;;;;;;;34.55;18.25;;;;;;;1.62;100.00;100419.50;4886456;29;20139;-85
2022/03/09 05:29:32;;;;;;;38.17;17.83;;;;;;;1.36;100.00;100392.28;4886563;29;20123;-86
2022/03/09 05:32:17;;;;;;;38.25;20.02;;;;;;;1.52;100.00;100421.88;4900430;29;20047;-86
2022/03/09 05:35:03;;;;;;;44.72;22.50;;;;;;;1.44;100.00;100410.53;4886835;29;20095;-84
2022/03/09 05:37:48;;;;;;;35.47;20.50;;;;;;;1.62;100.00;100422.09;4900716;29;20053;-84
2022/03/09 05:40:33;;;;;;;35.92;20.08;;;;;;;1.64;100.00;100427.31;4901525;29;20063;-87
2022/03/09 05:43:18;;;;;;;42.70;23.40;;;;;;;1.62;100.00;100418.66;4888132;29;20109;-86
2022/03/09 05:46:02;;;;;;;37.30;21.13;;;;;;;1.74;100.00;100436.13;4902280;29;20044;-86
2022/03/09 05:48:47;;;;;;;38.30;20.23;;;;;;;1.68;100.00;100421.34;4902265;29;20423;-86
2022/03/09 05:51:31;;;;;;;54.60;24.98;;;;;;;1.82;100.00;100435.44;4902505;29;20040;-86
2022/03/09 05:54:16;;;;;;;41.88;20.40;;;;;;;1.90;99.53;100435.59;4901923;29;20384;-84
2022/03/09 05:57:00;;;;;;;48.33;22.30;;;;;;;1.82;97.96;100437.13;4888277;29;20100;-86
2022/03/09 05:59:45;;;;;;;46.88;22.13;;;;;;;1.84;96.96;100438.91;4901776;29;20063;-85
2022/03/09 06:02:29;;;;;;;56.97;26.33;;;;;;;1.83;96.11;100425.97;4901969;29;20072;-86
2022/03/09 06:05:13;;;;;;;43.03;17.90;;;;;;;1.88;95.03;100450.19;4901886;29;20068;-86
2022/03/09 06:07:58;;;;;;;49.25;22.10;;;;;;;1.86;94.69;100450.16;4901595;29;20363;-86
2022/03/09 06:10:42;;;;;;;48.35;21.10;;;;;;;2.01;94.01;100456.47;4902109;29;20044;-86
2022/03/09 06:13:27;;;;;;;48.13;22.02;;;;;;;2.69;94.74;100443.06;4888183;29;20056;-88
2022/03/09 06:16:11;;;;;;;44.65;20.60;;;;;;;3.23;90.07;100426.69;4901406;29;20055;-87
2022/03/09 06:18:55;;;;;;;65.22;33.72;;;;;;;3.14;85.00;100411.88;4901522;29;20132;-87
2022/03/09 06:21:42;;;;;;;30.73;15.93;;;;;;;3.42;81.75;100433.84;4901653;29;20155;-87
2022/03/09 06:24:26;;;;;;;34.17;16.88;;;;;;;3.89;82.79;100437.91;4901617;29;20459;-88
2022/03/09 06:27:11;;;;;;;36.35;18.65;;;;;;;4.41;82.08;100434.16;4887431;29;20071;-91
2022/03/09 06:29:57;;;;;;;33.15;15.73;;;;;;;4.74;78.22;100442.22;4901309;29;20052;-89
2022/03/09 06:32:43;;;;;;;30.92;15.52;;;;;;;5.21;75.27;100447.81;4874450;29;20108;-89
2022/03/09 06:35:28;;;;;;;37.05;17.50;;;;;;;5.57;73.63;100441.09;4874567;29;20041;-88
2022/03/09 06:38:12;;;;;;;28.27;14.43;;;;;;;5.13;70.75;100439.97;4887588;29;20048;-89
2022/03/09 06:40:57;;;;;;;52.25;21.63;;;;;;;5.28;70.69;100443.53;4874446;29;20048;-88
2022/03/09 06:43:41;;;;;;;82.03;29.60;;;;;;;5.84;71.29;100455.94;4887292;29;20352;-88
2022/03/09 06:46:26;;;;;;;60.13;24.30;;;;;;;6.13;70.07;100447.44;4901085;29;20056;-88
2022/03/09 06:49:10;;;;;;;80.30;32.88;;;;;;;5.63;67.84;100452.38;4901537;29;20045;-88
2022/03/09 06:51:55;;;;;;;86.68;35.33;;;;;;;6.04;67.78;100459.53;4887681;29;20428;-89
2022/03/09 06:54:39;;;;;;;44.88;19.98;;;;;;;6.22;66.54;100450.94;4900906;29;20048;-89
2022/03/09 06:57:23;;;;;;;43.78;18.65;;;;;;;7.14;65.02;100463.16;4887195;29;20072;-88
2022/03/09 07:00:11;;;;;;;31.67;15.80;;;;;;;7.49;64.20;100450.97;4887543;29;20059;-89
2022/03/09 07:02:56;;;;;;;33.63;16.83;;;;;;;7.15;61.56;100459.69;4901070;29;20048;-88
2022/03/09 07:05:41;;;;;;;26.85;14.25;;;;;;;7.75;63.37;100468.28;4886987;29;20044;-88
2022/03/09 07:08:26;;;;;;;23.48;12.70;;;;;;;7.37;62.15;100458.78;4901010;29;20044;-88
2022/03/09 07:11:11;;;;;;;22.75;11.18;;;;;;;7.03;62.41;100460.56;4873878;29;20053;-88
2022/03/09 07:13:55;;;;;;;21.33;11.93;;;;;;;6.89;63.77;100457.09;4887229;29;20053;-89
2022/03/09 07:16:40;;;;;;;27.88;13.63;;;;;;;6.50;63.61;100449.25;4900956;29;20044;-88
2022/03/09 07:19:24;;;;;;;16.90;10.57;;;;;;;6.96;64.07;100451.91;4886945;29;20056;-87
2022/03/09 07:22:09;;;;;;;20.65;11.05;;;;;;;6.74;64.99;100455.38;4886877;29;20045;-88
2022/03/09 07:24:53;;;;;;;21.52;12.07;;;;;;;7.20;62.71;100452.75;4886905;29;20041;-89
2022/03/09 07:27:38;;;;;;;18.98;11.00;;;;;;;7.03;62.93;100452.75;4900668;29;20045;-89
2022/03/09 07:30:22;;;;;;;17.05;10.65;;;;;;;7.06;63.73;100452.75;4886861;29;20037;-89
2022/03/09 07:33:07;;;;;;;20.20;12.38;;;;;;;7.05;63.47;100456.22;4900049;29;20045;-88
2022/03/09 07:35:51;;;;;;;22.48;12.48;;;;;;;6.76;64.66;100453.63;4885033;29;20428;-88
2022/03/09 07:38:38;;;;;;;21.58;11.77;;;;;;;7.18;63.72;100444.06;4899501;29;20044;-88
2022/03/09 07:41:22;;;;;;;20.95;11.50;;;;;;;7.17;64.83;100447.53;4885086;29;20048;-88
2022/03/09 07:44:08;;;;;;;19.48;11.15;;;;;;;7.38;63.60;100447.53;4898890;29;20059;-89
2022/03/09 07:46:52;;;;;;;19.10;11.65;;;;;;;6.82;64.24;100450.16;4898919;29;20328;-88
2022/03/09 07:49:37;;;;;;;20.02;12.70;;;;;;;6.94;64.66;100452.75;4885240;29;20064;-89
2022/03/09 07:52:22;;;;;;;20.77;10.52;;;;;;;7.18;64.71;100447.56;4885238;29;20048;-89
2022/03/09 07:55:08;;;;;;;25.98;13.40;;;;;;;7.02;66.31;100457.13;4885242;29;20451;-88
2022/03/09 07:57:53;;;;;;;19.73;11.90;;;;;;;7.72;63.86;100456.09;4884908;29;20045;-88
2022/03/09 08:00:38;;;;;;;22.58;11.80;;;;;;;7.64;63.72;100455.28;4884887;29;20045;-89
2022/03/09 08:03:22;;;;;;;20.02;11.55;;;;;;;7.77;64.47;100457.81;4871623;29;20048;-88
2022/03/09 08:06:06;;;;;;;22.05;11.90;;;;;;;7.45;64.82;100457.06;4899280;29;20560;-89
2022/03/09 08:08:51;;;;;;;20.10;12.32;;;;;;;7.50;63.68;100459.63;4889947;29;20359;-90
2022/03/09 08:11:36;;;;;;;21.65;12.05;;;;;;;7.33;63.70;100462.28;4889846;29;20408;-88
2022/03/09 08:14:20;;;;;;;20.27;12.57;;;;;;;7.40;64.21;100465.75;4904276;29;20056;-88
2022/03/09 08:17:05;;;;;;;22.75;12.82;;;;;;;7.84;63.24;100468.25;4903646;29;20340;-88
2022/03/09 08:19:50;;;;;;;21.88;13.13;;;;;;;7.73;63.24;100470.00;4874205;29;20368;-90
2022/03/09 08:22:34;;;;;;;18.02;12.40;;;;;;;8.03;62.05;100460.38;4903584;29;20048;-89
2022/03/09 08:25:18;;;;;;;21.45;12.98;;;;;;;8.25;62.81;100448.91;4903422;29;20044;-88
2022/03/09 08:28:03;;;;;;;16.98;11.65;;;;;;;8.35;61.06;100454.94;4889510;29;20056;-89
2022/03/09 08:30:47;;;;;;;23.05;12.13;;;;;;;7.63;62.04;100455.25;4890055;29;20409;-89
2022/03/09 08:33:32;;;;;;;15.98;9.98;;;;;;;7.84;61.38;100456.94;4876734;29;20053;-89
2022/03/09 08:36:16;;;;;;;19.23;10.43;;;;;;;8.01;61.83;100462.09;4903277;29;20049;-90
2022/03/09 08:39:01;;;;;;;14.40;9.30;;;;;;;8.09;61.16;100461.19;4903425;29;20052;-88
2022/03/09 08:41:46;;;;;;;15.85;9.75;;;;;;;7.92;61.64;100452.56;4903760;29;20127;-87
2022/03/09 08:44:31;;;;;;;15.55;10.23;;;;;;;7.79;62.25;100443.91;4889323;29;20418;-87
2022/03/09 08:47:15;;;;;;;12.90;9.00;;;;;;;7.89;62.18;100450.81;4889396;29;20149;-88
2022/03/09 08:49:59;;;;;;;15.73;10.63;;;;;;;7.81;62.29;100447.38;4903488;29;20048;-90
2022/03/09 08:52:44;;;;;;;16.10;9.88;;;;;;;7.73;62.84;100454.34;4903103;29;20049;-89
2022/03/09 08:55:29;;;;;;;14.52;10.23;;;;;;;7.75;62.91;100436.97;4889097;29;20045;-88
2022/03/09 08:58:13;;;;;;;20.30;11.35;;;;;;;7.38;64.57;100444.06;4889025;29;20048;-91
2022/03/09 09:00:59;;;;;;;15.85;10.10;;;;;;;7.75;62.75;100447.41;4889722;29;20412;-90
2022/03/09 09:03:43;;;;;;;15.68;10.55;;;;;;;7.57;63.56;100450.97;4876122;29;20051;-91
2022/03/09 09:06:27;;;;;;;15.40;9.57;;;;;;;7.67;63.15;100442.22;4903315;29;20060;-89
2022/03/09 09:09:14;;;;;;;21.40;12.15;;;;;;;7.53;63.27;100448.34;4889424;29;20111;-89
2022/03/09 09:11:59;;;;;;;17.10;11.32;;;;;;;7.59;63.98;100450.94;4903093;29;20044;-90
2022/03/09 09:14:44;;;;;;;16.63;9.43;;;;;;;7.90;64.72;100456.94;4875690;29;20044;-90
2022/03/09 09:17:28;;;;;;;19.02;10.93;;;;;;;8.03;63.34;100452.53;4875651;29;20044;-91
2022/03/09 09:20:13;;;;;;;17.15;10.07;;;;;;;8.12;63.37;100449.84;4888413;29;20447;-90
2022/03/09 09:22:58;;;;;;;17.83;10.65;;;;;;;8.11;61.20;100442.91;4888763;29;20044;-90
2022/03/09 09:25:43;;;;;;;15.98;10.05;;;;;;;8.33;61.02;100449.75;4888656;29;20071;-90
2022/03/09 09:28:28;;;;;;;18.27;9.30;;;;;;;8.18;61.46;100442.88;4903359;29;20104;-89
2022/03/09 09:31:12;;;;;;;13.02;10.07;;;;;;;8.32;60.92;100436.69;4875963;29;20052;-91
2022/03/09 09:33:57;;;;;;;18.50;10.05;;;;;;;8.21;61.28;100452.44;4888494;29;20104;-90
2022/03/09 09:36:44;;;;;;;13.18;9.02;;;;;;;8.25;61.18;100437.63;4875704;29;20408;-92
2022/03/09 09:39:29;;;;;;;15.05;9.90;;;;;;;8.47;61.68;100436.66;4902349;29;20087;-88
2022/03/09 09:42:15;;;;;;;14.15;9.25;;;;;;;8.61;59.15;100440.06;4888780;29;20056;-86
2022/03/09 09:45:00;;;;;;;15.98;9.63;;;;;;;8.58;58.83;100441.78;4902186;29;20400;-86
2022/03/09 09:47:45;;;;;;;15.35;9.35;;;;;;;8.19;59.11;100446.38;4875021;29;20048;-85
2022/03/09 09:50:31;;;;;;;14.38;8.85;;;;;;;8.19;58.66;100451.59;4888375;29;20049;-87
2022/03/09 09:53:15;;;;;;;13.02;8.55;;;;;;;8.51;58.16;100438.34;4902020;29;20113;-87
2022/03/09 09:56:00;;;;;;;15.50;9.43;;;;;;;8.52;56.30;100445.31;4874860;29;20051;-88
2022/03/09 09:58:45;;;;;;;13.40;8.57;;;;;;;8.58;57.18;100447.00;4902005;29;20447;-88
2022/03/09 10:01:29;;;;;;;13.10;8.63;;;;;;;8.68;56.83;100459.16;4902306;29;20048;-88
2022/03/09 10:04:14;;;;;;;22.70;13.88;;;;;;;8.60;57.47;100463.53;4874871;29;20076;-88
2022/03/09 10:06:59;;;;;;;12.13;8.95;;;;;;;8.63;57.09;100460.91;4872217;29;20451;-88
2022/03/09 10:09:43;;;;;;;18.40;9.95;;;;;;;8.85;55.32;100457.28;4887923;29;20055;-89
2022/03/09 10:12:29;;;;;;;14.73;8.73;;;;;;;8.88;55.27;100453.78;4901596;29;20332;-87
2022/03/09 10:15:15;;;;;;;17.70;9.90;;;;;;;9.19;55.70;100463.97;4887968;29;20432;-87
2022/03/09 10:18:14;;;;;;;11.70;8.57;;;;;;;9.16;53.78;100464.84;4888164;29;20096;-90
2022/03/09 10:21:10;;;;;;;12.85;9.15;;;;;;;9.04;52.89;100458.00;4871108;29;20112;-92
2022/03/09 10:23:59;;;;;;;13.93;8.77;;;;;;;8.93;53.54;100464.19;4901654;29;20052;-89
2022/03/09 10:26:46;;;;;;;24.92;10.00;;;;;;;9.27;52.51;100459.53;4887341;29;20080;-85
2022/03/09 10:29:30;;;;;;;14.68;9.32;;;;;;;8.74;53.33;100456.50;4901205;29;20112;-88
2022/03/09 10:32:14;;;;;;;23.30;13.90;;;;;;;8.89;52.59;100451.13;4901697;29;20040;-87
2022/03/09 10:34:59;;;;;;;13.38;9.23;;;;;;;9.05;53.14;100448.41;4901240;29;20048;-86
2022/03/09 10:37:46;;;;;;;24.85;12.38;;;;;;;9.04;51.26;100444.94;4887783;29;20045;-86
2022/03/09 10:40:38;;;;;;;17.30;9.27;;;;;;;9.24;51.04;100441.28;4874299;29;20052;-88
2022/03/09 10:43:27;;;;;;;13.55;8.65;;;;;;;9.46;50.99;100440.19;4887109;29;20052;-86
2022/03/09 10:46:13;;;;;;;13.57;9.63;;;;;;;9.62;51.72;100440.88;4886981;29;20044;-89
2022/03/09 10:49:00;;;;;;;14.10;8.90;;;;;;;9.50;52.05;100444.47;4901574;29;20123;-83
2022/03/09 10:51:52;;;;;;;14.90;9.50;;;;;;;9.72;51.71;100437.28;4900951;29;20045;-86
2022/03/09 10:54:37;;;;;;;13.68;9.68;;;;;;;9.97;51.47;100432.59;4900868;29;20048;-84
2022/03/09 10:57:30;;;;;;;18.92;11.38;;;;;;;10.01;51.21;100438.69;4899570;29;20044;-86
2022/03/09 11:00:14;;;;;;;12.77;9.10;;;;;;;9.82;51.31;100435.41;4899116;29;20509;-90
2022/03/09 11:03:05;;;;;;;17.52;10.98;;;;;;;9.66;51.35;100441.72;4885226;29;20367;-84
2022/03/09 11:05:52;;;;;;;27.70;15.88;;;;;;;9.74;51.39;100430.25;4899058;29;20049;-89
2022/03/09 11:08:38;;;;;;;23.38;12.50;;;;;;;9.77;52.62;100427.59;4899081;29;20127;-88
2022/03/09 11:11:23;;;;;;;21.75;11.70;;;;;;;9.92;51.91;100429.19;4885315;29;20678;-86
2022/03/09 11:14:08;;;;;;;13.80;9.65;;;;;;;9.80;50.75;100440.66;4885975;29;20077;-89
2022/03/09 11:16:57;;;;;;;14.73;10.02;;;;;;;9.78;50.68;100437.19;4873726;29;20037;-89
2022/03/09 11:19:44;;;;;;;14.15;9.93;;;;;;;9.88;51.02;100437.97;4900654;29;20355;-88
2022/03/09 11:22:28;;;;;;;22.02;12.93;;;;;;;10.23;50.49;100423.53;4901250;29;20108;-90
2022/03/09 11:25:13;;;;;;;14.43;8.95;;;;;;;9.69;49.25;100426.84;4887005;29;20049;-86
2022/03/09 11:27:59;;;;;;;13.32;9.10;;;;;;;9.96;48.19;100415.16;4901174;29;20044;-87
2022/03/09 11:30:57;;;;;;;13.13;8.82;;;;;;;9.94;48.18;100430.00;4887126;29;20112;-88
2022/03/09 11:33:51;;;;;;;16.85;9.35;;;;;;;10.01;44.92;100428.22;4887314;29;20044;-85
2022/03/09 11:36:35;;;;;;;17.33;9.40;;;;;;;9.66;48.96;100424.25;4886668;29;20428;-86
2022/03/09 11:39:22;;;;;;;15.57;9.75;;;;;;;9.71;49.16;100416.34;4887152;29;20111;-86
2022/03/09 11:42:21;;;;;;;16.25;9.02;;;;;;;9.81;48.90;100417.97;4902623;29;20060;-86
2022/03/09 11:45:20;;;;;;;14.57;8.35;;;;;;;9.85;47.76;100419.69;4877009;29;20048;-85
2022/03/09 11:48:05;;;;;;;14.55;8.63;;;;;;;10.25;46.89;100421.75;4875575;29;20044;-86
2022/03/09 11:50:50;;;;;;;9.38;6.32;;;;;;;10.35;41.47;100420.78;4902295;29;20127;-85
2022/03/09 11:53:44;;;;;;;10.50;6.82;;;;;;;10.33;42.61;100411.22;4875242;29;20045;-86
2022/03/09 11:56:37;;;;;;;10.45;7.07;;;;;;;10.42;41.54;100413.69;4902180;29;20424;-86
2022/03/09 11:59:28;;;;;;;10.93;7.78;;;;;;;10.12;40.65;100420.19;4888236;29;20048;-84
2022/03/09 12:02:13;;;;;;;12.63;7.18;;;;;;;10.20;39.79;100419.19;4888680;29;20115;-84
2022/03/09 12:05:00;;;;;;;13.57;8.00;;;;;;;10.45;40.26;100416.28;4903166;29;20040;-85
2022/03/09 12:07:46;;;;;;;13.70;8.02;;;;;;;10.66;41.45;100415.94;4888651;29;20337;-85
2022/03/09 12:10:45;;;;;;;14.48;8.63;;;;;;;10.80;41.47;100409.63;4889168;29;20041;-85
2022/03/09 12:13:38;;;;;;;11.85;6.57;;;;;;;10.93;37.55;100409.38;4889100;29;20064;-85
2022/03/09 12:16:24;;;;;;;11.90;7.32;;;;;;;10.99;36.99;100416.28;4902850;29;20049;-84
2022/03/09 12:19:09;;;;;;;9.93;6.40;;;;;;;10.85;35.91;100418.25;4889455;29;20044;-84
2022/03/09 12:21:53;;;;;;;11.52;7.63;;;;;;;10.89;37.38;100412.97;4904134;29;20051;-85
2022/03/09 12:24:39;;;;;;;13.55;7.50;;;;;;;10.91;37.38;100402.44;4903851;29;20096;-83
2022/03/09 12:27:27;;;;;;;12.20;6.50;;;;;;;10.68;37.80;100411.53;4889424;29;20119;-85
2022/03/09 12:30:37;;;;;;;12.32;7.13;;;;;;;10.51;35.68;100405.72;4903927;29;20044;-84
2022/03/09 12:33:36;;;;;;;10.63;6.72;;;;;;;10.43;35.18;100407.56;4903863;29;20045;-85
2022/03/09 12:36:24;;;;;;;11.27;7.22;;;;;;;10.64;36.98;100403.75;4889505;29;20044;-85
2022/03/09 12:39:08;;;;;;;11.25;6.85;;;;;;;10.74;37.66;100392.25;4876847;29;20040;-84
2022/03/09 12:41:55;;;;;;;16.98;9.10;;;;;;;10.66;36.90;100400.22;4903260;29;20048;-84
2022/03/09 12:44:40;;;;;;;12.15;6.70;;;;;;;10.46;35.81;100411.03;4903744;29;20051;-84
2022/03/09 12:47:25;;;;;;;10.65;6.32;;;;;;;10.69;36.28;100383.56;4903684;29;20050;-85
2022/03/09 12:50:10;;;;;;;17.25;9.05;;;;;;;10.57;37.16;100395.13;4903468;29;20104;-87